Sioux City, IA (51104)

6:56 PM CDT on August 30, 2016 (GMT -0500)
Northside Jones House | | Change Station

Elev 1253 ft 42.55 °N, 96.41 °W | Updated 20 seconds ago

Clear
Clear
77.0 °F
Feels Like 78 °F
N
4.0
Wind Variable Wind from East
Gusts 7.0 mph

Today
High -- | Low -- °F
--% Chance of Precip.
Yesterday
High -- | Low -- °F
Precip. -- in
Pressure 30.11 in
Visibility 10.0 miles
Clouds Clear
Heat Index 78 °F
Dew Point 71 °F
Humidity 83%
Rainfall 0.00 in
Snow Depth Not available.
6:48 AM 8:02 PM
Waning Crescent, 2% visible
METAR KSUX 302352Z 05007KT 10SM CLR 28/20 A3013 RMK AO2 SLP195 T02780200 10294 20256 58008
Pressure 30.11 in
Visibility 10.0 miles
Clouds Clear
Heat Index 78 °F
Dew Point 71 °F
Humidity 83%
Rainfall 0.00 in
Snow Depth Not available.
6:48 AM 8:02 PM
Waning Crescent, 2% visible
METAR KSUX 302352Z 05007KT 10SM CLR 28/20 A3013 RMK AO2 SLP195 T02780200 10294 20256 58008

10-Day Weather Forecast

Almanac

Astronomy

Aug. 30, 2016 Rise Set
Actual Time
Civil Twilight
Nautical Twilight
Astronomical Twilight
Moon
Length of Visible Light
Length of Day
Tomorrow will be .
, % of the Moon is Illuminated

Today's Extremes

State Highs State Lows

Community

WunderPhotos

Upload Photos

1,935,947 photos uploaded!

WunderBlog® & News

Nearby

Air Quality

  Air Quality AQ Index Pollutant
Not available.

Snow Depth

Station Depth Elevation

Earthquake Activity

City Distance Mag. Time & Date
Minimum magnitude displayed is 2.5.

Coastal Water Temperatures

Place Temperature

Stations

Nearby Weather Stations

Station Location Temp. Windchill Dew Point Humidity Wind Precip. Elev Updated Type
                   

Watches & Warnings

There are currently no watches in effect.